Aviation Digital Data Service (ADDS)

Output produced by METARs form (1411 UTC 19 February 2020)
found at http://aviationweather.gov/metar/data/
 
METAR text: KDKB 191355Z AUTO 33006KT 10SM CLR M09/M15 A3061 RMK AO2 T10951152
Conditions at: KDKB (DE KALB , IL, US) observed 1355 UTC 19 February 2020
Temperature: -9.5°C (15°F)
Dewpoint: -15.2°C ( 5°F) [RH = 63%]
Pressure (altimeter): 30.61 inches Hg (1036.7 mb)
Winds: from the NNW (330 degrees) at 7 MPH (6 knots; 3.1 m/s)
Visibility: 10 or more miles (16+ km)
Ceiling: at least 12,000 feet AGL
Clouds: sky clear below 12,000 feet AGL
Weather: automated observation with no human augmentation;
there may or may not be significant weather present at this time